Aerodrome Latest Weathers

# Airport/Station Observation Time (Local Time) Wind Visibility (km) Weather Temp. (°C) Dewdrop (°C) Air Pressure (hPa)
Direction (from) Speed (km/h)
1 Cut Nyak Dien Nagan Raya - Meulaboh, NAD 2019-05-24 02:00:00 WIB Timur Laut 3.7 7.0 Berawan 25 24 1009
2 Malikus Saleh - Lhokseumawe 2019-05-24 03:00:00 WIB Tenang 6.0 Cerah - berawan 24 23 1009
3 Kualanamu International Airport - Deli Serdang 2019-05-24 03:30:00 WIB Selatan 3.7 5.0 Udara kabur 26 25 1009
4 Dr. Ferdinand Lumban Tobing - Pinangsori (Sibolga) 2019-05-24 03:30:00 WIB Timur 3.7 >=10 Berawan 25 25 1008
5 Aek Godang - Padang Sidempuan 2019-05-24 03:00:00 WIB Tenang 7.0 Berawan 24 23 1010
6 Minangkabau International Airport - Padang 2019-05-24 03:30:00 WIB Variabel 3.7 >=10 Berawan 24 24 1009
7 Sultan Syarif Kasim II - Pekanbaru 2019-05-24 01:00:00 WIB Tenang 8.0 Cerah - berawan 27 25 1009
8 Fatmawati Sukarno - Bengkulu 2019-05-24 02:00:00 WIB Timur 3.7 8.0 Cerah - berawan 26 25 1009
9 Sultan Thaha - Jambi 2019-05-24 03:30:00 WIB Selatan 3.7 6.0 Berawan 24 24 1009
10 Hang Nadim - Batam 2019-05-24 03:30:00 WIB Tenang >=10 Cerah - berawan 25 25 1011
11 Raja Haji Fisabilillah - Tanjung Pinang 2019-05-24 02:00:00 WIB Tenang 8.0 Cerah - berawan 26 25 1010
12 Sultan Mahmud Badaruddin II - Palembang 2019-05-24 03:30:00 WIB Barat Daya 3.7 1.8 Halimun 24 24 1010
13 Radin Inten II - Lampung 2019-05-24 01:30:00 WIB Barat Daya 7.4 8.0 Cerah - berawan 25 23 1011
14 Depati Amir - Pangkal Pinang 2019-05-24 03:00:00 WIB Selatan 5.6 8.0 Berawan 26 24 1009
15 Soekarno Hatta - Jakarta 2019-05-24 03:30:00 WIB Barat Daya 3.7 5.0 Udara kabur 26 22 1010
16 H.A.S. Hanandjoeddin - Tanjung Pandan 2019-05-24 01:00:00 WIB Selatan 5.6 8.0 Cerah - berawan 26 25 1010
17 Kertajati 2019-05-24 03:30:00 WIB Selatan 11.1 >=10 Berawan 26 23 1010
18 Supadio - Pontianak 2019-05-24 01:30:00 WIB Tenang 6.0 Berawan 27 25 1010
19 Rahadi Oesman - Ketapang 2019-05-24 03:30:00 WIB Tenggara 7.4 Cerah 25 25 1010
20 Ahmad Yani - Semarang 2019-05-24 03:30:00 WIB Timur 13.0 >=10 Cerah 26 23 1010
21 Iswahjudi - Madiun 2019-05-24 01:00:00 WIB Selatan 9.3 8.0 Cerah - berawan 26 23 1013
22 Iskandar - Pangkalan Bun 2019-05-24 03:30:00 WIB Tenang 6.0 Berawan 25 24 1010
23 Juanda - Surabaya 2019-05-24 03:30:00 WIB Barat 7.4 3.0 Udara kabur 25 24 1010
24 Haji Asan - Sampit 2019-05-24 03:00:00 WIB Tenang 0.5 Berkabut 24 24 1010
25 Beringin - Muara Teweh 2019-05-24 03:30:00 WIB Tenang 4.0 Halimun 24 24 1011
26 Syamsudin Noor - Banjarmasin 2019-05-24 04:30:00 WITA Timur 9.3 7.0 Cerah - berawan 23 23 1009
27 I Gusti Ngurah Rai - Denpasar 2019-05-24 04:30:00 WITA Timur 16.7 >=10 Cerah - berawan 26 25 1012
28 Bandara Internasional Lombok - Praya 2019-05-24 04:30:00 WITA Tenang 7.0 Berawan 24 24 1012
29 Sultan Aji Muhammad Sulaiman - Sepinggan 2019-05-24 04:30:00 WITA Barat 9.3 9.0 Berawan 25 25 1009
30 Tanjung Harapan - Tanjung Selor 2019-05-24 04:00:00 WITA Selatan 14.8 4.0 Guntur di sekitarnya 24 23 1010
31 Sultan Muhammad Kaharuddin - Sumbawa Besar 2019-05-24 04:00:00 WITA Tenggara 11.1 8.0 Cerah - berawan 24 21 1011
32 Kalimarau - Tanjung Redeb 2019-05-24 02:00:00 WITA Barat 9.3 7.0 Berawan 26 26 1012
33 Sultan Hasanuddin - Makassar 2019-05-24 02:30:00 WITA Variabel 3.7 >=10 Berawan 26 25 1010
34 Komodo - Labuan Bajo 2019-05-24 02:00:00 WITA Barat Daya 7.4 7.0 Cerah - berawan 24 20 1013
35 Mutiara SIS Al-Jufri - Palu 2019-05-24 04:00:00 WITA Selatan 1.9 6.0 Berawan 26 23 1011
36 Umbu Mehang Kunda - Waingapu 2019-05-24 04:00:00 WITA Barat Daya 14.8 5.0 Cerah - berawan 22 20 1013
37 Andi Jemma - Masamba 2019-05-24 04:00:00 WITA Utara 7.4 8.0 Berawan 24 22 1011
38 Tardamu - Sabu 2019-05-24 04:30:00 WITA Tenggara 5.6 6.0 Cerah - berawan 25 23 1013
39 Fransiskus Xaverius Seda - Maumere 2019-05-24 04:30:00 WITA Selatan 11.1 8.0 Cerah - berawan 26 23 1012
40 Beto Ambari - Bau Bau 2019-05-24 04:00:00 WITA Tenggara 7.4 >=10 Cerah - berawan 25 24 1012
41 Syukuran Aminuddin Amir - Luwuk 2019-05-24 04:00:00 WITA Barat 5.6 >=10 Berawan 26 23 1010
42 Djalaluddin - Gorontalo 2019-05-24 04:00:00 WITA Timur 1.9 9.0 Cerah - berawan 24 24 1008
43 Gewayantana - Larantuka 2019-05-24 04:00:00 WITA Utara 5.6 8.0 Cerah - berawan 25 21 1011
44 David Constantijn Saudale - Rote 2019-05-24 03:00:00 WITA Tenggara 11.1 >=10 Berawan 25 22 1017
45 El Tari - Kupang 2019-05-24 04:30:00 WITA Tenggara 9.3 >=10 Cerah - berawan 24 21 1013
46 Mali - Alor 2019-05-24 04:00:00 WITA Tenang 8.0 Cerah - berawan 23 22 1011
47 Sam Ratulangi - Manado 2019-05-24 04:30:00 WITA Tenang 7.0 Cerah - berawan 23 22 1010
48 Naha - Tahuna 2019-05-24 02:00:00 WITA Tenang 9.0 Cerah - berawan 25 23 1009
49 Emalamo - Sanana 2019-05-24 04:00:00 WIT Tenang 8.0 Berawan 25 24 1010
50 Sultan Babullah - Ternate 2019-05-24 05:30:00 WIT Tenang >=10 Cerah - berawan 25 23 1011
51 Oesman Sadik - Labuha 2019-05-24 05:00:00 WIT Tenang 9.0 Cerah - berawan 23 21 1010
52 Gamar Malamo - Galela 2019-05-24 05:00:00 WIT Tenang >=10 Cerah - berawan 23 22 1009
53 Pattimura - Ambon 2019-05-24 05:30:00 WIT Variabel 3.7 >=10 Berawan 24 24 1010
54 Amahai 2019-05-24 03:00:00 WIT Tenang >=10 Berawan 25 24 1010
55 Bandaneira - Banda 2019-05-24 03:00:00 WIT Barat 7.4 7.0 Berawan 27 24 1009
56 Domine Eduard Osok - Sorong 2019-05-24 05:30:00 WIT Timur 5.6 7.0 Berawan 27 25 1010
57 Mathilda Batlayeri - Saumlaki 2019-05-24 04:00:00 WIT Tenggara 5.6 8.0 Berawan 26 23 1011
58 Dumatubun - Langgur 2019-05-24 05:00:00 WIT Tenggara 9.3 4.0 Berawan 25 24 1010
59 Utarom - Kaimana 2019-05-24 05:00:00 WIT Tenang 4.0 Hujan tiba-tiba di sekitarnya 24 23 1010
60 Rendani - Manokwari 2019-05-24 05:00:00 WIT Tenang 6.0 Cerah - berawan 25 24 1009
61 Douw Aturure - Nabire 2019-05-24 05:30:00 WIT Tenang 5.0 Guntur di sekitarnya 25 23 1009
62 Frans Kaisiepo - Biak 2019-05-24 05:30:00 WIT Tenang >=10 Berawan 25 24 1010
63 Mozes Kilangin - Timika 2019-05-24 05:30:00 WIT Barat Laut 5.6 >=10 Cerah - berawan 23 23 1011
64 Wamena 2019-05-24 05:30:00 WIT Tenang 1.0 Halimun 16 16 1009
65 Mopah - Merauke 2019-05-24 03:00:00 WIT Tenggara 3.7 8.0 Berawan 25 23 1010
66 Sentani - Jayapura 2019-05-24 05:30:00 WIT Tenang >=10 Cerah - berawan 24 22 1011

Satellite Images

Wave Height Forecast

Wind Forecast

Forest Fires